Airfield :







YOU CAN JOIN US ON...

 
LOGIN :

Register | Disclaimer

   EN    FR    IT 

 









Legend :    VFR   Marginal VFR   IFR   Intensive IFR   Very Intensive IFR
Visi :
Ceiling :
>= 8 km
>= 3000ft
5 to 8 km
1000 to 3000 ft
1500m to 5 km
500 to 1000 ft
800 to 1500m
200 to 500 ft
< 800m
< 200 ft
Symbols :   Thunderstorms  Fog  Heavy snow  Heavy precipitations  Wind > 20 kt







- Airport Elevation : 408 ft


KMLT - Millinocket Municipal

CURRENT METAR :
  • 160853Z AUTO 19003KT 10SM CLR 12/10 A2982 RMK AO2 SLP101 T01170100 53004 $

EXPIRED METARs :
  • 160753Z AUTO 26004KT 10SM SCT046 13/10 A2980 RMK AO2 SLP096 T01330100 $
  • 160653Z AUTO 30007KT 10SM BKN045 OVC055 14/09 A2980 RMK AO2 SLP095 T01440094 $

TAF N/A
KZBW FIR / North America



MET'MAP, your aeronautical weather chart ! - Copyright ORBIFLY December 2007 - Disclaimer

ORBIFLY MET'MAP TEAM :

Programming & Development : Alexandra Zaïnal
Concept & Development : Baudouin d'Aumeries
Co-Development & Prog : Marc-Olivier Méhu
Technical & hardware support : Manuel Goepfert

Contact : metmap@orbifly.com




SOURCES & CREDITS :

   NOAA